Time;durP1;ratioP1;P1;durP2;ratioP2;P2;SDS_P1;SDS_P2;PMS_P1;PMS_P2;Temp;Humidity;BMP_temperature;BMP_pressure;BME280_temperature;BME280_humidity;BME280_pressure;Samples;Min_cycle;Max_cycle;Signal;HPM_P1;HPM_P2
2023/11/01 00:01:37;;;;;;;4.97;4.67;;;14.00;99.90;;;;;;5014062;28;20433;-68
2023/11/01 00:04:03;;;;;;;5.10;4.80;;;14.10;99.90;;;;;;5014345;28;20270;-68
2023/11/01 00:06:28;;;;;;;6.00;5.00;;;14.10;99.90;;;;;;5013834;28;20960;-67
2023/11/01 00:08:56;;;;;;;5.63;4.90;;;14.10;99.90;;;;;;5015170;28;20179;-68
2023/11/01 00:11:22;;;;;;;4.93;4.53;;;14.10;99.90;;;;;;5014662;28;20176;-67
2023/11/01 00:13:48;;;;;;;6.60;4.93;;;14.20;99.90;;;;;;5015112;28;20428;-68
2023/11/01 00:16:15;;;;;;;7.00;4.97;;;14.20;99.90;;;;;;5014540;28;20416;-61
2023/11/01 00:18:41;;;;;;;6.07;4.90;;;14.20;99.90;;;;;;5014078;28;20422;-68
2023/11/01 00:21:07;;;;;;;4.70;4.40;;;14.30;99.90;;;;;;5012778;28;20634;-68
2023/11/01 00:23:33;;;;;;;4.90;4.40;;;14.30;99.90;;;;;;5011414;28;20183;-67
2023/11/01 00:25:59;;;;;;;5.70;4.60;;;14.30;99.90;;;;;;5014699;28;20485;-68
2023/11/01 00:28:26;;;;;;;5.07;4.67;;;14.30;99.90;;;;;;5013226;28;20921;-67
2023/11/01 00:30:52;;;;;;;5.20;4.70;;;14.40;99.90;;;;;;5014181;28;20185;-69
2023/11/01 00:33:18;;;;;;;5.30;4.43;;;14.40;99.90;;;;;;5011381;28;20427;-61
2023/11/01 00:35:44;;;;;;;4.57;3.80;;;14.40;99.90;;;;;;5014848;28;20496;-67
2023/11/01 00:38:10;;;;;;;4.63;4.33;;;14.40;99.90;;;;;;5012805;28;20183;-68
2023/11/01 00:40:35;;;;;;;5.57;5.17;;;14.40;99.90;;;;;;5014257;28;20175;-67
2023/11/01 00:43:03;;;;;;;6.67;5.00;;;14.50;99.90;;;;;;5013061;28;20422;-68
2023/11/01 00:45:29;;;;;;;5.10;4.70;;;14.50;99.90;;;;;;5012960;28;20239;-68
2023/11/01 00:47:55;;;;;;;5.17;4.67;;;14.50;99.90;;;;;;5013827;28;20927;-68
2023/11/01 00:50:20;;;;;;;5.77;4.50;;;14.40;99.90;;;;;;5011883;28;20189;-68
2023/11/01 00:52:46;;;;;;;5.33;4.80;;;14.40;99.90;;;;;;5014784;28;20223;-68
2023/11/01 00:55:12;;;;;;;6.27;4.27;;;14.40;99.90;;;;;;5012277;28;20179;-68
2023/11/01 00:57:37;;;;;;;4.40;4.10;;;14.30;99.90;;;;;;5013439;28;20252;-63
2023/11/01 01:00:06;;;;;;;4.50;4.10;;;14.30;99.90;;;;;;5014015;28;20621;-68
2023/11/01 01:02:32;;;;;;;4.40;4.00;;;14.30;99.90;;;;;;5013719;28;20540;-68
2023/11/01 01:04:58;;;;;;;4.63;4.27;;;14.20;99.90;;;;;;5014219;28;20435;-67
2023/11/01 01:07:23;;;;;;;4.57;4.07;;;14.20;99.90;;;;;;5013795;28;20412;-68
2023/11/01 01:09:49;;;;;;;4.70;4.37;;;14.10;99.90;;;;;;5013307;28;20219;-68
2023/11/01 01:12:15;;;;;;;3.93;3.73;;;14.20;99.90;;;;;;5013346;28;20212;-68
2023/11/01 01:14:41;;;;;;;3.50;3.30;;;14.20;99.90;;;;;;5011995;28;20188;-68
2023/11/01 01:17:06;;;;;;;5.30;4.20;;;14.20;99.90;;;;;;5013913;28;20180;-68
2023/11/01 01:19:32;;;;;;;4.33;3.93;;;14.20;99.90;;;;;;5012483;28;20199;-68
2023/11/01 01:21:58;;;;;;;6.40;5.80;;;14.20;99.90;;;;;;5013210;28;20200;-68
2023/11/01 01:24:23;;;;;;;5.17;4.30;;;14.10;99.90;;;;;;5013290;28;20607;-68
2023/11/01 01:26:49;;;;;;;5.00;3.90;;;14.20;99.90;;;;;;5013015;28;20702;-68
2023/11/01 01:29:15;;;;;;;3.90;3.53;;;14.20;99.90;;;;;;5012565;28;20182;-68
2023/11/01 01:31:40;;;;;;;3.90;3.60;;;14.20;99.90;;;;;;5013126;28;20169;-68
2023/11/01 01:34:06;;;;;;;4.53;4.07;;;14.20;99.90;;;;;;5012768;28;20689;-68
2023/11/01 01:36:33;;;;;;;4.47;3.70;;;14.20;99.90;;;;;;5012288;28;20184;-68
2023/11/01 01:38:59;;;;;;;3.70;3.40;;;14.20;99.90;;;;;;5013305;28;20628;-68
2023/11/01 01:41:25;;;;;;;4.40;4.00;;;14.20;99.90;;;;;;5011885;28;20486;-65
2023/11/01 01:43:50;;;;;;;4.00;3.70;;;14.20;99.90;;;;;;5013252;28;20766;-68
2023/11/01 01:46:17;;;;;;;4.30;4.10;;;14.20;99.90;;;;;;5013185;28;20211;-68
2023/11/01 01:48:45;;;;;;;5.10;4.30;;;14.20;99.90;;;;;;5012266;28;20184;-68
2023/11/01 01:51:12;;;;;;;4.90;4.10;;;14.20;99.90;;;;;;5012328;28;20458;-68
2023/11/01 01:53:43;;;;;;;4.20;4.00;;;14.20;99.90;;;;;;5012600;28;20475;-68
2023/11/01 01:56:10;;;;;;;4.00;3.80;;;14.30;99.90;;;;;;5010981;28;20439;-69
2023/11/01 01:58:38;;;;;;;4.47;4.10;;;14.30;99.90;;;;;;5011383;28;20477;-68
2023/11/01 02:01:04;;;;;;;4.57;4.27;;;14.30;99.90;;;;;;5013641;28;20415;-68
2023/11/01 02:03:30;;;;;;;4.50;4.20;;;14.30;99.90;;;;;;5010354;28;20425;-68
2023/11/01 02:05:56;;;;;;;4.47;4.27;;;14.30;99.90;;;;;;5011916;28;20459;-69
2023/11/01 02:08:24;;;;;;;4.23;3.93;;;14.30;99.90;;;;;;5011992;28;20176;-62
2023/11/01 02:10:49;;;;;;;4.50;4.20;;;14.30;99.90;;;;;;5011377;28;20432;-69
2023/11/01 02:13:15;;;;;;;4.53;4.23;;;14.40;99.90;;;;;;5011787;28;20428;-68
2023/11/01 02:15:43;;;;;;;5.20;4.70;;;14.40;99.90;;;;;;5011253;28;20183;-68
2023/11/01 02:18:09;;;;;;;4.80;4.40;;;14.40;99.90;;;;;;5013093;28;20419;-69
2023/11/01 02:20:38;;;;;;;6.13;5.10;;;14.40;99.90;;;;;;5011212;28;20434;-68
2023/11/01 02:23:10;;;;;;;4.37;4.07;;;14.40;99.90;;;;;;5012157;28;20436;-68
2023/11/01 02:25:37;;;;;;;4.30;4.00;;;14.40;99.90;;;;;;5010911;28;20509;-69
2023/11/01 02:28:04;;;;;;;4.40;4.00;;;14.40;99.90;;;;;;5012889;28;20431;-69
2023/11/01 02:30:30;;;;;;;4.47;4.07;;;14.40;99.90;;;;;;5010916;28;20799;-68
2023/11/01 02:32:56;;;;;;;5.80;4.73;;;14.50;99.90;;;;;;5012628;28;20423;-69
2023/11/01 02:35:22;;;;;;;4.67;4.27;;;14.40;99.90;;;;;;5011698;28;20624;-61
2023/11/01 02:37:48;;;;;;;6.37;4.73;;;14.50;99.90;;;;;;5010733;28;20195;-67
2023/11/01 02:40:15;;;;;;;4.67;4.30;;;14.40;99.90;;;;;;5011898;28;20491;-65
2023/11/01 02:42:45;;;;;;;4.40;4.00;;;14.40;99.90;;;;;;5010627;28;21068;-68
2023/11/01 02:45:11;;;;;;;4.73;3.70;;;14.30;99.90;;;;;;5010761;28;20910;-68
2023/11/01 02:47:38;;;;;;;4.77;3.97;;;14.20;99.90;;;;;;5011098;28;20431;-68
2023/11/01 02:50:15;;;;;;;4.10;3.80;;;14.20;99.90;;;;;;5011682;28;20431;-69
2023/11/01 02:52:41;;;;;;;3.90;3.60;;;14.30;99.90;;;;;;5010946;28;20938;-69
2023/11/01 02:55:09;;;;;;;3.70;3.33;;;14.10;99.90;;;;;;5011530;28;20473;-68
2023/11/01 02:57:36;;;;;;;4.50;4.10;;;14.10;99.90;;;;;;5009843;28;20188;-69
2023/11/01 03:00:06;;;;;;;4.10;3.80;;;14.10;99.90;;;;;;5012268;28;20785;-70
2023/11/01 03:02:36;;;;;;;4.33;4.03;;;14.10;99.90;;;;;;5010420;28;20433;-69
2023/11/01 03:05:03;;;;;;;4.13;3.83;;;14.10;99.90;;;;;;5011372;28;20522;-69
2023/11/01 03:07:29;;;;;;;3.83;3.63;;;14.10;99.90;;;;;;5011289;28;20437;-68
2023/11/01 03:09:55;;;;;;;4.53;4.07;;;13.90;99.90;;;;;;5011673;28;20422;-69
2023/11/01 03:12:20;;;;;;;3.57;3.27;;;13.90;99.90;;;;;;5011399;28;20488;-69
2023/11/01 03:14:46;;;;;;;3.30;3.10;;;13.90;99.90;;;;;;5009266;28;23798;-69
2023/11/01 03:17:12;;;;;;;3.70;3.50;;;13.90;99.90;;;;;;5012564;28;20189;-69
2023/11/01 03:19:38;;;;;;;6.10;3.60;;;14.00;99.90;;;;;;5012753;28;20191;-68
2023/11/01 03:22:04;;;;;;;6.53;3.43;;;14.00;99.90;;;;;;5015051;28;20460;-69
2023/11/01 03:24:31;;;;;;;4.00;3.70;;;14.00;99.90;;;;;;5013618;28;20516;-68
2023/11/01 03:26:58;;;;;;;3.57;3.30;;;13.90;99.90;;;;;;5015968;28;20453;-68
2023/11/01 03:29:26;;;;;;;4.40;3.30;;;13.90;99.90;;;;;;5015236;28;20425;-68
2023/11/01 03:31:52;;;;;;;3.17;2.87;;;14.00;99.90;;;;;;5015775;28;20553;-69
2023/11/01 03:34:19;;;;;;;3.50;3.20;;;13.80;99.90;;;;;;5015301;28;20483;-68
2023/11/01 03:36:45;;;;;;;3.83;3.60;;;13.90;99.90;;;;;;5012502;28;21258;-68
2023/11/01 03:39:11;;;;;;;4.30;3.90;;;13.90;99.90;;;;;;5015141;28;20481;-68
2023/11/01 03:41:42;;;;;;;3.17;2.97;;;13.50;99.90;;;;;;5015237;28;20216;-68
2023/11/01 03:44:09;;;;;;;3.40;3.20;;;13.50;99.90;;;;;;5014985;28;20439;-68
2023/11/01 03:46:34;;;;;;;3.27;3.07;;;13.70;99.90;;;;;;5012209;28;20979;-68
2023/11/01 03:49:00;;;;;;;5.70;3.50;;;13.70;99.90;;;;;;5014540;28;20508;-68
2023/11/01 03:51:26;;;;;;;4.10;3.80;;;13.70;99.90;;;;;;5015319;28;20683;-62
2023/11/01 03:53:53;;;;;;;7.40;4.10;;;13.60;99.90;;;;;;5014310;28;20426;-69
2023/11/01 03:56:20;;;;;;;4.07;3.83;;;13.60;99.90;;;;;;5013417;28;20438;-68
2023/11/01 03:58:47;;;;;;;4.20;3.90;;;13.60;99.90;;;;;;5014510;28;20512;-67
2023/11/01 04:01:13;;;;;;;4.03;3.93;;;13.40;99.90;;;;;;5014276;28;20434;-68
2023/11/01 04:03:39;;;;;;;4.73;4.43;;;13.50;99.90;;;;;;5013629;28;20432;-68
2023/11/01 04:06:05;;;;;;;4.17;3.97;;;13.60;99.90;;;;;;5014460;28;20310;-68
2023/11/01 04:08:30;;;;;;;4.30;4.10;;;13.60;99.90;;;;;;5014804;28;20278;-68
2023/11/01 04:10:56;;;;;;;3.87;3.67;;;13.70;99.90;;;;;;5014315;28;20175;-68
2023/11/01 04:13:22;;;;;;;4.70;4.30;;;13.60;99.90;;;;;;5014577;28;20766;-68
2023/11/01 04:15:48;;;;;;;4.43;4.13;;;13.60;99.90;;;;;;5014189;28;20277;-68
2023/11/01 04:18:13;;;;;;;3.70;3.50;;;13.50;99.90;;;;;;5014349;28;20638;-68
2023/11/01 04:20:39;;;;;;;3.87;3.77;;;13.40;99.90;;;;;;5014790;28;20225;-68
2023/11/01 04:23:05;;;;;;;3.97;3.77;;;13.40;99.90;;;;;;5013036;28;20225;-68
2023/11/01 04:25:32;;;;;;;4.10;4.00;;;13.40;99.90;;;;;;5013278;28;20213;-62
2023/11/01 04:27:58;;;;;;;3.63;3.50;;;13.50;99.90;;;;;;5013813;28;20960;-68
2023/11/01 04:30:25;;;;;;;4.00;3.80;;;13.40;99.90;;;;;;5014989;28;20440;-69
2023/11/01 04:32:51;;;;;;;4.43;4.23;;;13.40;99.90;;;;;;5011607;28;20418;-69
2023/11/01 04:35:16;;;;;;;4.27;4.07;;;13.50;99.90;;;;;;5014904;28;20925;-68
2023/11/01 04:37:43;;;;;;;4.93;4.53;;;13.60;99.90;;;;;;5011911;28;20469;-68
2023/11/01 04:40:11;;;;;;;4.60;4.40;;;13.70;99.90;;;;;;5014007;28;20265;-68
2023/11/01 04:42:41;;;;;;;4.50;4.30;;;13.80;99.90;;;;;;5013778;28;20501;-69
2023/11/01 04:45:09;;;;;;;4.80;4.60;;;13.90;99.90;;;;;;5013588;28;20430;-68
2023/11/01 04:47:36;;;;;;;4.00;3.90;;;13.90;99.90;;;;;;5012771;28;20528;-68
2023/11/01 04:50:08;;;;;;;4.00;3.90;;;13.90;99.90;;;;;;5012311;28;20854;-69
2023/11/01 04:52:34;;;;;;;4.00;3.90;;;13.90;99.90;;;;;;5013927;28;20493;-65
2023/11/01 04:55:00;;;;;;;4.60;4.40;;;13.90;99.90;;;;;;5013729;28;20433;-69
2023/11/01 04:57:26;;;;;;;5.13;4.80;;;14.00;99.90;;;;;;5012186;28;20434;-68
2023/11/01 04:59:52;;;;;;;4.40;4.20;;;13.90;99.90;;;;;;5013701;28;20642;-68
2023/11/01 05:02:18;;;;;;;5.20;4.90;;;13.90;99.90;;;;;;5013469;28;20188;-68
2023/11/01 05:04:43;;;;;;;4.10;4.00;;;14.00;99.90;;;;;;5012856;28;20437;-69
2023/11/01 05:07:09;;;;;;;4.00;3.80;;;14.00;99.90;;;;;;5014413;28;20541;-70
2023/11/01 05:09:35;;;;;;;4.50;4.30;;;14.10;99.90;;;;;;5012935;28;20183;-68
2023/11/01 05:12:00;;;;;;;4.43;4.23;;;14.00;99.90;;;;;;5013284;28;20190;-68
2023/11/01 05:14:26;;;;;;;4.30;4.20;;;14.00;99.90;;;;;;5013965;28;20187;-68
2023/11/01 05:16:52;;;;;;;3.90;3.70;;;14.10;99.90;;;;;;5011749;28;20180;-68
2023/11/01 05:19:19;;;;;;;4.37;4.10;;;14.10;99.90;;;;;;5012997;28;20178;-68
2023/11/01 05:21:45;;;;;;;3.97;3.87;;;14.10;99.90;;;;;;5012946;28;20187;-73
2023/11/01 05:24:11;;;;;;;4.37;4.00;;;14.10;99.90;;;;;;5013117;28;20430;-75
2023/11/01 05:26:37;;;;;;;4.33;4.23;;;14.10;99.90;;;;;;5009204;28;20580;-73
2023/11/01 05:29:04;;;;;;;4.53;4.23;;;14.10;99.90;;;;;;5014293;28;20574;-74
2023/11/01 05:31:32;;;;;;;5.00;4.70;;;14.10;99.90;;;;;;5009804;28;20465;-73
2023/11/01 05:33:59;;;;;;;4.63;4.40;;;14.10;99.90;;;;;;5012570;28;20426;-74
2023/11/01 05:36:26;;;;;;;4.40;4.20;;;14.10;99.90;;;;;;5012511;28;20813;-73
2023/11/01 05:38:52;;;;;;;3.77;3.67;;;14.10;99.90;;;;;;5013144;28;20418;-74
2023/11/01 05:41:19;;;;;;;4.10;4.00;;;14.10;99.90;;;;;;5010674;28;20520;-74
2023/11/01 05:43:45;;;;;;;5.90;5.50;;;14.10;99.90;;;;;;5011872;28;20433;-74
2023/11/01 05:46:10;;;;;;;3.93;3.83;;;14.10;99.90;;;;;;5013379;28;20541;-74
2023/11/01 05:48:36;;;;;;;4.30;4.10;;;14.10;99.90;;;;;;5011688;28;20426;-65
2023/11/01 05:51:04;;;;;;;4.17;3.97;;;14.20;99.90;;;;;;5011852;28;20233;-73
2023/11/01 05:53:34;;;;;;;6.57;6.07;;;14.10;99.90;;;;;;5013661;28;20447;-73
2023/11/01 05:56:00;;;;;;;4.63;4.23;;;14.20;99.90;;;;;;5012091;28;20429;-73
2023/11/01 05:58:27;;;;;;;4.40;4.10;;;14.20;99.90;;;;;;5012449;28;20461;-74
2023/11/01 06:00:53;;;;;;;4.03;3.93;;;14.20;99.90;;;;;;5011911;28;20865;-68
2023/11/01 06:03:19;;;;;;;4.90;4.70;;;14.20;99.90;;;;;;5012825;28;20432;-73
2023/11/01 06:05:46;;;;;;;5.40;5.00;;;14.30;99.90;;;;;;5010532;28;20806;-73
2023/11/01 06:08:13;;;;;;;5.50;5.20;;;14.30;99.90;;;;;;5013365;28;20449;-74
2023/11/01 06:10:41;;;;;;;4.40;4.30;;;14.30;99.90;;;;;;5011150;28;20501;-70
2023/11/01 06:13:09;;;;;;;5.10;4.90;;;14.30;99.90;;;;;;5012243;28;20910;-74
2023/11/01 06:15:36;;;;;;;6.63;5.97;;;14.30;99.90;;;;;;5012652;28;20930;-67
2023/11/01 06:18:05;;;;;;;6.13;5.67;;;14.30;99.90;;;;;;5011701;28;20426;-74
2023/11/01 06:20:34;;;;;;;5.20;5.00;;;14.40;99.90;;;;;;5011441;28;20582;-74
2023/11/01 06:23:00;;;;;;;4.87;4.63;;;14.40;99.90;;;;;;5012514;28;20521;-74
2023/11/01 06:25:26;;;;;;;5.50;5.20;;;14.40;99.90;;;;;;5011834;28;20597;-74
2023/11/01 06:27:52;;;;;;;4.97;4.67;;;14.40;99.90;;;;;;5010922;28;20423;-64
2023/11/01 06:30:18;;;;;;;5.13;4.70;;;14.40;99.90;;;;;;5011745;28;20567;-64
2023/11/01 06:32:44;;;;;;;5.87;5.53;;;14.70;99.90;;;;;;5009916;28;20284;-64
2023/11/01 06:35:10;;;;;;;4.60;4.43;;;14.90;99.90;;;;;;5010996;28;20539;-64
2023/11/01 06:37:36;;;;;;;4.40;4.20;;;15.10;99.90;;;;;;5011129;28;20196;-68
2023/11/01 06:40:02;;;;;;;4.10;4.00;;;15.20;99.90;;;;;;5010659;28;20532;-67
2023/11/01 06:42:28;;;;;;;4.63;4.30;;;15.20;99.90;;;;;;5012529;28;20482;-67
2023/11/01 06:44:54;;;;;;;4.70;4.33;;;15.10;99.90;;;;;;5010662;28;20424;-67
2023/11/01 06:47:20;;;;;;;4.50;4.30;;;15.00;99.90;;;;;;5008840;28;20467;-67
2023/11/01 06:49:47;;;;;;;4.77;4.57;;;14.90;99.90;;;;;;5008681;28;20463;-68
2023/11/01 06:52:13;;;;;;;5.23;4.73;;;14.80;99.90;;;;;;5011535;28;20355;-68
2023/11/01 06:54:40;;;;;;;4.50;4.30;;;14.70;99.90;;;;;;5010598;28;20852;-63
2023/11/01 06:57:07;;;;;;;4.03;3.83;;;14.80;99.90;;;;;;5009493;28;20191;-68
2023/11/01 06:59:33;;;;;;;4.77;4.57;;;14.70;99.90;;;;;;5010834;28;20598;-67
2023/11/01 07:01:58;;;;;;;4.47;4.27;;;14.70;99.90;;;;;;5010269;28;20517;-68
2023/11/01 07:04:24;;;;;;;5.53;5.17;;;14.70;99.90;;;;;;5009908;28;20187;-68
2023/11/01 07:06:50;;;;;;;4.37;3.97;;;14.80;99.90;;;;;;5011515;28;20205;-68
2023/11/01 07:09:16;;;;;;;3.53;3.30;;;14.80;99.90;;;;;;5011665;28;20605;-67
2023/11/01 07:11:42;;;;;;;4.13;3.80;;;14.70;99.90;;;;;;5010359;28;20192;-64
2023/11/01 07:14:09;;;;;;;3.67;3.47;;;14.60;99.90;;;;;;5009001;28;20427;-68
2023/11/01 07:16:39;;;;;;;3.80;3.60;;;14.60;99.90;;;;;;5011138;28;20268;-67
2023/11/01 07:19:06;;;;;;;3.90;3.60;;;14.60;99.90;;;;;;5011704;28;20421;-68
2023/11/01 07:21:32;;;;;;;4.10;3.30;;;14.50;99.90;;;;;;5010119;28;20442;-68
2023/11/01 07:23:58;;;;;;;3.70;3.37;;;14.50;99.90;;;;;;5010774;28;20923;-67
2023/11/01 07:26:24;;;;;;;3.70;3.40;;;14.50;99.90;;;;;;5010424;28;20222;-74
2023/11/01 07:28:50;;;;;;;3.80;3.60;;;14.50;99.90;;;;;;5010243;28;20429;-72
2023/11/01 07:31:16;;;;;;;3.43;3.23;;;14.50;99.90;;;;;;5010760;28;20561;-74
2023/11/01 07:33:42;;;;;;;3.50;3.40;;;14.50;99.90;;;;;;5009170;28;20219;-63
2023/11/01 07:36:09;;;;;;;5.20;4.00;;;14.50;99.90;;;;;;5008095;28;20212;-72
2023/11/01 07:38:35;;;;;;;3.93;3.73;;;14.50;99.90;;;;;;5011974;28;20429;-72
2023/11/01 07:41:01;;;;;;;4.23;4.03;;;14.50;99.90;;;;;;5010006;28;20456;-72
2023/11/01 07:43:27;;;;;;;4.30;3.90;;;14.50;99.90;;;;;;5008809;28;20426;-72
2023/11/01 07:45:53;;;;;;;4.20;3.90;;;14.40;99.90;;;;;;5010122;28;20980;-72
2023/11/01 07:48:19;;;;;;;3.83;3.73;;;14.40;99.90;;;;;;5011019;28;20218;-72
2023/11/01 07:50:45;;;;;;;4.33;4.00;;;14.30;99.90;;;;;;5010954;28;20223;-71
2023/11/01 07:53:11;;;;;;;3.47;3.30;;;14.40;99.90;;;;;;5010998;28;20795;-73
2023/11/01 07:55:36;;;;;;;3.97;3.70;;;14.50;99.90;;;;;;5011135;28;20445;-73
2023/11/01 07:58:02;;;;;;;4.10;3.80;;;14.50;99.90;;;;;;5007771;28;20175;-74
2023/11/01 08:00:28;;;;;;;4.10;3.80;;;14.50;99.90;;;;;;5012124;28;20172;-74
2023/11/01 08:02:53;;;;;;;5.30;4.47;;;14.40;99.90;;;;;;5010002;28;20234;-73
2023/11/01 08:05:20;;;;;;;3.90;3.70;;;14.50;99.90;;;;;;5014687;28;20181;-74
2023/11/01 08:07:46;;;;;;;3.50;3.20;;;14.50;99.90;;;;;;5015093;28;20195;-71
2023/11/01 08:10:11;;;;;;;4.70;4.20;;;14.60;99.90;;;;;;5014340;28;20427;-75
2023/11/01 08:12:38;;;;;;;4.17;3.90;;;14.60;99.90;;;;;;5014397;28;20268;-76
2023/11/01 08:15:04;;;;;;;4.47;4.17;;;14.70;99.90;;;;;;5013578;28;20180;-73
2023/11/01 08:17:31;;;;;;;4.47;4.10;;;14.70;99.90;;;;;;5011972;28;20556;-74
2023/11/01 08:19:57;;;;;;;4.70;4.30;;;14.80;99.90;;;;;;5012155;28;20425;-74
2023/11/01 08:22:22;;;;;;;4.27;4.07;;;14.90;99.90;;;;;;5014460;28;20508;-74
2023/11/01 08:24:48;;;;;;;6.40;4.03;;;14.90;99.90;;;;;;5012343;28;20905;-73
2023/11/01 08:27:14;;;;;;;4.27;3.77;;;15.00;99.90;;;;;;5011579;28;20273;-73
2023/11/01 08:29:42;;;;;;;5.50;5.20;;;15.10;99.90;;;;;;5012898;28;20236;-72
2023/11/01 08:32:09;;;;;;;5.07;4.67;;;15.10;99.90;;;;;;5012859;28;20209;-66
2023/11/01 08:34:35;;;;;;;4.30;3.90;;;15.20;99.90;;;;;;5007506;28;20777;-73
2023/11/01 08:37:02;;;;;;;3.40;3.20;;;15.20;99.90;;;;;;5011580;28;20762;-73
2023/11/01 08:39:27;;;;;;;4.60;4.20;;;15.30;99.90;;;;;;5014449;28;20452;-72
2023/11/01 08:41:53;;;;;;;4.23;3.80;;;15.30;99.90;;;;;;5010824;28;20425;-65
2023/11/01 08:44:19;;;;;;;3.73;3.43;;;15.30;99.90;;;;;;5008446;28;20183;-71
2023/11/01 08:46:45;;;;;;;914.37;500.47;;;15.40;99.90;;;;;;5009446;28;20198;-63
2023/11/01 08:49:11;;;;;;;49.60;38.10;;;15.40;99.90;;;;;;5012513;28;20197;-64
2023/11/01 08:51:39;;;;;;;4.33;3.80;;;15.50;99.90;;;;;;5010135;28;20481;-72
2023/11/01 08:54:05;;;;;;;4.00;3.70;;;15.50;99.90;;;;;;5012035;28;20503;-66
2023/11/01 08:56:31;;;;;;;4.23;3.70;;;15.70;99.90;;;;;;5014113;28;20433;-67
2023/11/01 08:58:57;;;;;;;4.33;3.33;;;15.80;99.90;;;;;;5008897;28;20433;-67
2023/11/01 09:01:24;;;;;;;3.50;2.90;;;15.90;99.90;;;;;;5013857;28;20178;-68
2023/11/01 09:03:50;;;;;;;3.37;3.17;;;16.00;99.90;;;;;;5011699;28;20623;-72
2023/11/01 09:06:16;;;;;;;3.50;3.20;;;16.10;99.90;;;;;;5012735;28;20468;-76
2023/11/01 09:08:42;;;;;;;5.23;3.20;;;16.30;99.90;;;;;;5012575;28;20838;-72
2023/11/01 09:11:08;;;;;;;3.40;3.20;;;16.50;99.90;;;;;;5008359;28;20940;-68
2023/11/01 09:13:34;;;;;;;3.63;3.03;;;16.60;99.90;;;;;;5013325;28;20426;-73
2023/11/01 09:15:59;;;;;;;4.27;3.33;;;16.80;99.90;;;;;;5010724;28;20217;-72
2023/11/01 09:18:25;;;;;;;3.57;3.30;;;16.90;99.90;;;;;;5011669;28;20175;-72
2023/11/01 09:20:51;;;;;;;3.30;3.10;;;17.10;99.90;;;;;;5012715;28;20183;-72
2023/11/01 09:23:17;;;;;;;3.53;3.23;;;17.20;99.90;;;;;;5012596;28;20214;-74
2023/11/01 09:25:43;;;;;;;3.90;3.70;;;17.30;99.90;;;;;;5011436;28;20234;-75
2023/11/01 09:28:08;;;;;;;4.03;3.73;;;17.30;99.90;;;;;;5011596;28;20422;-69
2023/11/01 09:30:35;;;;;;;3.57;3.30;;;17.30;99.90;;;;;;5008580;28;20188;-68
2023/11/01 09:33:01;;;;;;;3.70;3.40;;;17.30;99.90;;;;;;5011283;28;20615;-72
2023/11/01 09:35:29;;;;;;;2.90;2.80;;;17.40;99.90;;;;;;5006341;28;20467;-68
2023/11/01 09:37:55;;;;;;;4.50;3.20;;;17.40;99.90;;;;;;5013072;28;20504;-72
2023/11/01 09:40:21;;;;;;;4.07;3.63;;;17.40;99.90;;;;;;5012431;28;20926;-72
2023/11/01 09:42:49;;;;;;;3.00;2.80;;;17.20;99.90;;;;;;5012185;28;20468;-64
2023/11/01 09:45:18;;;;;;;3.50;3.20;;;17.10;99.90;;;;;;5013558;28;20436;-72
2023/11/01 09:47:44;;;;;;;3.10;2.90;;;17.10;99.90;;;;;;5010584;28;20426;-71
2023/11/01 09:50:12;;;;;;;3.70;3.40;;;17.00;99.90;;;;;;5011308;28;20414;-67
2023/11/01 09:52:39;;;;;;;3.20;3.00;;;16.80;99.90;;;;;;5012887;28;20433;-70
2023/11/01 09:55:05;;;;;;;3.37;2.93;;;16.70;99.90;;;;;;5004246;28;20434;-72
2023/11/01 09:57:34;;;;;;;3.00;2.90;;;16.70;99.90;;;;;;5011785;28;21012;-71
2023/11/01 10:00:02;;;;;;;3.40;3.17;;;16.70;99.90;;;;;;5010048;28;20517;-72
2023/11/01 10:02:27;;;;;;;3.13;2.97;;;16.70;99.90;;;;;;5011975;28;20760;-72
2023/11/01 10:04:53;;;;;;;4.50;4.10;;;16.70;99.90;;;;;;5012177;28;20414;-71
2023/11/01 10:07:19;;;;;;;4.60;4.20;;;16.70;99.90;;;;;;5011787;28;20493;-72
2023/11/01 10:09:46;;;;;;;51.20;37.00;;;16.70;99.90;;;;;;5012850;28;20462;-73
2023/11/01 10:12:13;;;;;;;8.10;7.40;;;16.80;99.90;;;;;;5012628;28;20167;-73
2023/11/01 10:14:39;;;;;;;4.77;4.30;;;16.90;99.90;;;;;;5011663;28;20464;-73
2023/11/01 10:17:05;;;;;;;6.10;4.40;;;17.10;99.90;;;;;;5011319;28;20434;-72
2023/11/01 10:19:31;;;;;;;4.93;4.70;;;17.30;99.90;;;;;;5012880;28;20430;-72
2023/11/01 10:21:58;;;;;;;5.00;4.70;;;17.40;99.90;;;;;;5011107;28;20237;-72
2023/11/01 10:24:27;;;;;;;3.80;3.50;;;17.40;99.90;;;;;;5011681;28;20434;-72
2023/11/01 10:26:55;;;;;;;4.03;3.60;;;17.40;99.90;;;;;;5011671;28;20461;-71
2023/11/01 10:29:21;;;;;;;3.43;3.07;;;17.40;99.90;;;;;;5011457;28;20455;-72
2023/11/01 10:31:58;;;;;;;4.57;3.57;;;17.40;99.90;;;;;;5011345;28;20440;-70
2023/11/01 10:34:31;;;;;;;3.20;2.97;;;17.30;99.90;;;;;;5007253;28;20847;-72
2023/11/01 10:36:58;;;;;;;6.83;3.93;;;17.30;99.90;;;;;;5010209;28;20434;-69
2023/11/01 10:39:25;;;;;;;4.70;3.63;;;17.20;99.90;;;;;;5009170;28;20917;-71
2023/11/01 10:41:53;;;;;;;4.93;3.20;;;17.10;99.90;;;;;;5010537;28;20418;-63
2023/11/01 10:44:21;;;;;;;3.00;2.90;;;16.90;99.90;;;;;;5008979;28;20430;-71
2023/11/01 10:46:48;;;;;;;4.63;3.10;;;16.90;99.90;;;;;;5011632;28;20548;-72
2023/11/01 10:49:15;;;;;;;5.00;3.37;;;16.90;99.90;;;;;;5011619;28;20434;-71
2023/11/01 10:51:42;;;;;;;4.30;3.50;;;17.10;99.90;;;;;;5010218;28;20877;-66
2023/11/01 10:54:12;;;;;;;4.33;3.40;;;17.30;99.90;;;;;;5010416;28;20426;-72
2023/11/01 10:56:38;;;;;;;7.43;3.43;;;17.60;99.90;;;;;;5012132;28;20793;-73
2023/11/01 10:59:08;;;;;;;3.57;3.27;;;17.80;99.90;;;;;;5009628;28;20475;-73
2023/11/01 11:01:42;;;;;;;3.53;3.30;;;18.00;99.90;;;;;;5011103;28;20479;-73
2023/11/01 11:04:38;;;;;;;3.67;3.33;;;18.20;99.90;;;;;;5012069;28;20430;-74
2023/11/01 11:07:17;;;;;;;3.20;3.07;;;18.60;99.90;;;;;;4992327;28;20930;-76
2023/11/01 11:09:43;;;;;;;3.90;3.47;;;18.80;99.90;;;;;;5003574;28;20437;-76
2023/11/01 11:12:24;;;;;;;4.13;3.50;;;19.10;99.90;;;;;;5010531;28;20410;-75
2023/11/01 11:14:51;;;;;;;4.10;3.23;;;19.30;99.90;;;;;;5010899;28;20183;-75
2023/11/01 11:17:18;;;;;;;3.53;3.33;;;19.40;99.90;;;;;;5009425;28;20442;-76
2023/11/01 11:20:05;;;;;;;3.13;2.70;;;19.30;99.90;;;;;;5009970;28;20445;-76
2023/11/01 11:23:02;;;;;;;3.90;3.50;;;19.40;99.90;;;;;;5010986;28;20446;-75
2023/11/01 11:25:37;;;;;;;19.90;14.00;;;19.60;99.90;;;;;;5008303;28;20445;-77
2023/11/01 11:28:06;;;;;;;4.53;4.20;;;19.90;99.90;;;;;;5004441;28;20436;-75
2023/11/01 11:31:01;;;;;;;3.60;3.13;;;19.90;99.40;;;;;;5010352;28;20425;-75
2023/11/01 11:33:27;;;;;;;3.40;3.20;;;19.90;99.70;;;;;;5010322;28;20415;-75
2023/11/01 11:36:13;;;;;;;9.77;4.17;;;20.00;98.90;;;;;;5010606;28;20438;-65
2023/11/01 11:38:49;;;;;;;5.50;3.67;;;19.90;98.70;;;;;;5010941;28;20513;-75
2023/11/01 11:41:38;;;;;;;3.77;3.43;;;19.70;99.50;;;;;;5013876;28;20452;-72
2023/11/01 11:44:06;;;;;;;5.83;3.70;;;19.40;99.70;;;;;;5003245;28;20430;-64
2023/11/01 11:46:45;;;;;;;3.50;3.30;;;19.50;99.90;;;;;;5014406;28;20461;-64
2023/11/01 11:49:24;;;;;;;4.90;2.93;;;19.50;99.90;;;;;;5014601;28;20426;-65
2023/11/01 11:52:07;;;;;;;3.50;3.30;;;19.50;99.90;;;;;;5011833;28;20564;-63
2023/11/01 11:54:34;;;;;;;3.27;3.00;;;19.60;99.90;;;;;;5012022;28;20774;-62
2023/11/01 11:57:08;;;;;;;8.50;3.27;;;19.60;99.00;;;;;;5011792;28;20445;-64
2023/11/01 11:59:35;;;;;;;4.27;3.40;;;19.50;99.30;;;;;;5013527;28;20467;-64
2023/11/01 12:02:15;;;;;;;3.60;3.40;;;19.50;99.70;;;;;;5013751;28;20428;-66
2023/11/01 12:04:43;;;;;;;3.50;3.30;;;19.30;99.20;;;;;;5013967;28;20426;-65
2023/11/01 12:07:18;;;;;;;3.43;3.23;;;19.10;99.90;;;;;;5013797;28;20816;-65
2023/11/01 12:10:03;;;;;;;3.40;3.20;;;19.00;99.90;;;;;;5007127;28;20438;-67
2023/11/01 12:12:29;;;;;;;3.53;3.23;;;18.70;99.40;;;;;;5010859;28;20414;-64
2023/11/01 12:15:00;;;;;;;3.30;3.10;;;18.50;99.90;;;;;;5013289;28;20433;-62
2023/11/01 12:17:29;;;;;;;4.50;4.20;;;18.40;99.90;;;;;;5008256;28;20781;-64
2023/11/01 12:19:56;;;;;;;4.20;4.00;;;18.40;99.90;;;;;;5014329;28;20508;-65
2023/11/01 12:22:22;;;;;;;4.53;4.23;;;18.40;99.90;;;;;;5012696;28;20508;-63
2023/11/01 12:24:49;;;;;;;5.10;4.67;;;18.40;99.90;;;;;;5014472;28;20513;-64
2023/11/01 12:27:27;;;;;;;6.67;6.00;;;18.30;99.90;;;;;;5013062;28;20214;-64
2023/11/01 12:29:55;;;;;;;12.53;11.43;;;18.10;99.90;;;;;;5013613;28;20433;-76
2023/11/01 12:32:23;;;;;;;5.37;4.87;;;18.10;99.90;;;;;;5014082;28;20422;-74
2023/11/01 12:34:49;;;;;;;5.60;4.90;;;17.90;99.90;;;;;;5014116;28;20462;-68
2023/11/01 12:37:18;;;;;;;4.60;4.20;;;17.70;99.90;;;;;;5013041;28;20565;-68
2023/11/01 12:40:12;;;;;;;4.50;4.10;;;17.50;99.90;;;;;;5012621;28;20564;-68
2023/11/01 12:42:46;;;;;;;6.63;3.30;;;17.30;99.90;;;;;;5013993;28;20430;-67
2023/11/01 12:45:13;;;;;;;4.03;3.73;;;17.20;99.90;;;;;;5012411;28;20399;-68
2023/11/01 12:47:43;;;;;;;3.93;3.63;;;17.20;99.90;;;;;;5014835;28;20456;-66